グアダラハラ の空港の天気 - METARとTAF

ドン・ミゲル・イダルゴ・イ・コスティージャ国際空港 ( MMGL / GDL ) - メキシコ ハリスコ州グアダラハラ
飛行場実況気象(Metar)
観測時間02/17 07:47 CST (02/17 13:47 UTC)
風向・風速静穏 0m/s
視程10km以上
天気現象
なし
気温10℃
湿度82%
気圧1021hPa
METARMMGL 171347Z 00000KT 8SM SKC 10/07 A3015
過去の天気等 Google飛行場航空写真 Wunderground天気予報

過去48時間のMETAR

飛行場予報(TAF)
発表時間: 2/17 04:06 CST (2/17 10:06 UTC)
予報対象時間: 17日6時 CST ~ 18日12時 CST
風向・風速静穏
視程10km以上
なし
17日12時 CST から
風向・風速西南西 6m/s
視程10km以上
なし
18日0時 CST から
風向・風速西 3m/s
視程10km以上
なし
18日4時 CST ~ 18日6時 CST に徐々に
風向・風速静穏
TAF MMGL 171006Z 1712/1818 00000KT P6SM SKC TX31/1721Z TN12/1712Z
FM171800 25012KT P6SM SKC
FM180600 26005KT P6SM SKC
BECMG 1810/1812 00000KT